createdAt,value
2023-05-06T00:00:40.917Z,58.67
2023-05-06T00:03:07.889Z,58.23
2023-05-06T00:05:36.721Z,58.51
2023-05-06T00:08:04.374Z,58.69
2023-05-06T00:10:31.477Z,58.62
2023-05-06T00:12:58.431Z,58.92
2023-05-06T00:15:25.574Z,59.02
2023-05-06T00:17:52.511Z,58.95
2023-05-06T00:20:19.478Z,58.86
2023-05-06T00:22:47.866Z,58.84
2023-05-06T00:25:14.778Z,58.55
2023-05-06T00:27:41.723Z,58.76
2023-05-06T00:30:10.883Z,58.71
2023-05-06T00:32:38.109Z,58.81
2023-05-06T00:35:06.853Z,58.61
2023-05-06T00:37:33.882Z,58.55
2023-05-06T00:40:03.028Z,58.49
2023-05-06T00:42:29.909Z,58.72
2023-05-06T00:44:56.918Z,58.47
2023-05-06T00:47:24.107Z,58.37
2023-05-06T00:49:51.419Z,58.64
2023-05-06T00:52:19.789Z,58.33
2023-05-06T00:54:46.743Z,58.32
2023-05-06T00:57:15.326Z,58.54
2023-05-06T00:59:44.335Z,58.27
2023-05-06T01:02:11.510Z,58.18
2023-05-06T01:04:38.657Z,58.43
2023-05-06T01:07:16.873Z,58.18
2023-05-06T01:09:57.270Z,58.13
2023-05-06T01:12:34.054Z,58.01
2023-05-06T01:15:09.657Z,58.06
2023-05-06T01:17:43.460Z,57.96
2023-05-06T01:20:12.613Z,58.19
2023-05-06T01:22:39.826Z,58.13
2023-05-06T01:25:19.097Z,58.22
2023-05-06T01:27:46.060Z,58.22
2023-05-06T01:30:15.566Z,57.83
2023-05-06T01:32:58.347Z,57.98
2023-05-06T01:35:40.578Z,57.89
2023-05-06T01:38:18.955Z,58.17
2023-05-06T01:40:54.241Z,57.85
2023-05-06T01:43:23.865Z,58.03
2023-05-06T01:45:54.769Z,57.97
2023-05-06T01:48:25.506Z,58.18
2023-05-06T01:50:52.853Z,57.83
2023-05-06T01:53:19.765Z,57.97
2023-05-06T01:55:48.726Z,58.11
2023-05-06T01:58:15.840Z,58.02
2023-05-06T02:00:42.894Z,58.13
2023-05-06T02:03:09.875Z,57.80
2023-05-06T02:05:36.824Z,58.04
2023-05-06T02:08:03.799Z,57.53
2023-05-06T02:10:30.903Z,57.63
2023-05-06T02:12:59.275Z,57.41
2023-05-06T02:15:26.357Z,57.59
2023-05-06T02:17:53.301Z,57.82
2023-05-06T02:20:20.354Z,57.28
2023-05-06T02:22:47.293Z,57.29
2023-05-06T02:25:14.231Z,57.37
2023-05-06T02:27:41.105Z,57.30
2023-05-06T02:30:10.478Z,57.21
2023-05-06T02:32:37.617Z,57.20
2023-05-06T02:35:06.030Z,57.42
2023-05-06T02:37:33.034Z,57.46
2023-05-06T02:39:59.918Z,57.32
2023-05-06T02:42:26.913Z,57.54
2023-05-06T02:44:53.818Z,57.51
2023-05-06T02:47:40.551Z,57.39
2023-05-06T02:50:08.246Z,57.63
2023-05-06T02:52:35.172Z,57.62
2023-05-06T02:55:02.841Z,57.63
2023-05-06T02:57:29.903Z,57.77
2023-05-06T02:59:56.877Z,57.77
2023-05-06T03:02:23.821Z,57.72
2023-05-06T03:04:52.095Z,57.87
2023-05-06T03:07:20.058Z,58.03
2023-05-06T03:09:46.922Z,57.83
2023-05-06T03:12:13.797Z,57.75
2023-05-06T03:14:40.696Z,57.87
2023-05-06T03:17:07.740Z,58.33
2023-05-06T03:19:34.765Z,58.43
2023-05-06T03:22:03.286Z,58.70
2023-05-06T03:24:30.177Z,58.79
2023-05-06T03:26:58.428Z,58.41
2023-05-06T03:29:25.378Z,58.53
2023-05-06T03:31:52.311Z,58.51
2023-05-06T03:34:19.220Z,58.32
2023-05-06T03:36:46.297Z,58.36
2023-05-06T03:39:14.553Z,58.82
2023-05-06T03:41:41.449Z,58.40
2023-05-06T03:44:08.323Z,58.42
2023-05-06T03:46:35.243Z,58.40
2023-05-06T03:49:02.774Z,58.52
2023-05-06T03:51:30.690Z,58.36
2023-05-06T03:53:58.088Z,58.44
2023-05-06T03:56:26.294Z,58.50
2023-05-06T03:58:56.306Z,58.92
2023-05-06T04:01:23.217Z,58.88
2023-05-06T04:03:50.497Z,59.14
2023-05-06T04:06:17.384Z,59.30
2023-05-06T04:08:44.255Z,58.84
2023-05-06T04:11:11.409Z,58.47
2023-05-06T04:13:39.572Z,58.42
2023-05-06T04:16:07.071Z,58.41
2023-05-06T04:18:34.225Z,58.27
2023-05-06T04:21:01.272Z,57.97
2023-05-06T04:23:28.170Z,57.95
2023-05-06T04:25:55.383Z,57.74
2023-05-06T04:28:22.356Z,57.67
2023-05-06T04:30:50.858Z,57.43
2023-05-06T04:33:17.727Z,57.47
2023-05-06T04:35:53.681Z,57.26
2023-05-06T04:38:26.985Z,57.25
2023-05-06T04:40:53.922Z,57.10
2023-05-06T04:43:21.010Z,57.04
2023-05-06T04:45:50.738Z,56.86
2023-05-06T04:48:22.271Z,56.59
2023-05-06T04:50:49.280Z,56.47
2023-05-06T04:53:16.717Z,56.86
2023-05-06T04:55:43.885Z,56.41
2023-05-06T04:58:10.833Z,56.40
2023-05-06T05:00:37.817Z,56.37
2023-05-06T05:03:04.815Z,56.04
2023-05-06T05:05:34.375Z,55.59
2023-05-06T05:08:01.299Z,55.71
2023-05-06T05:10:28.160Z,55.94
2023-05-06T05:12:55.038Z,55.89
2023-05-06T05:15:22.065Z,55.68
2023-05-06T05:17:50.199Z,55.71
2023-05-06T05:20:21.961Z,55.80
2023-05-06T05:22:50.747Z,55.84
2023-05-06T05:25:17.835Z,55.93
2023-05-06T05:27:44.762Z,55.77
2023-05-06T05:30:12.461Z,55.83
2023-05-06T05:32:39.462Z,55.76
2023-05-06T05:35:10.074Z,55.84
2023-05-06T05:37:37.357Z,55.69
2023-05-06T05:40:07.867Z,55.59
2023-05-06T05:42:34.755Z,55.88
2023-05-06T05:45:01.758Z,55.68
2023-05-06T05:47:28.736Z,55.67
2023-05-06T05:49:55.619Z,55.56
2023-05-06T05:52:22.587Z,55.44
2023-05-06T05:54:49.775Z,55.08
2023-05-06T05:57:18.025Z,55.35
2023-05-06T05:59:44.874Z,55.02
2023-05-06T06:02:11.809Z,54.96
2023-05-06T06:04:38.740Z,54.70
2023-05-06T06:07:05.841Z,54.33
2023-05-06T06:09:32.727Z,53.89
2023-05-06T06:11:59.588Z,53.86
2023-05-06T06:14:27.874Z,53.58
2023-05-06T06:16:55.266Z,53.08
2023-05-06T06:19:22.156Z,53.14
2023-05-06T06:21:49.088Z,52.79
2023-05-06T06:24:16.283Z,52.87
2023-05-06T06:26:43.141Z,52.68
2023-05-06T06:29:10.030Z,52.74
2023-05-06T06:31:40.310Z,52.04
2023-05-06T06:34:08.977Z,52.47
2023-05-06T06:36:35.926Z,52.27
2023-05-06T06:39:03.322Z,51.59
2023-05-06T06:41:30.203Z,51.48
2023-05-06T06:43:57.025Z,51.44
2023-05-06T06:46:24.040Z,51.27
2023-05-06T06:48:52.346Z,51.03
2023-05-06T06:51:19.276Z,50.74
2023-05-06T06:53:48.216Z,50.48
2023-05-06T06:56:15.900Z,50.97
2023-05-06T06:58:42.981Z,50.90
2023-05-06T07:01:10.372Z,50.94
2023-05-06T07:03:37.372Z,50.62
2023-05-06T07:06:05.828Z,51.04
2023-05-06T07:08:32.757Z,51.12
2023-05-06T07:10:59.746Z,50.86
2023-05-06T07:13:26.700Z,50.61
2023-05-06T07:15:53.669Z,50.60
2023-05-06T07:18:20.584Z,50.41
2023-05-06T07:20:47.477Z,50.26
2023-05-06T07:23:15.899Z,50.24
2023-05-06T07:25:42.794Z,50.40
2023-05-06T07:28:09.656Z,49.97
2023-05-06T07:30:38.376Z,49.78
2023-05-06T07:33:05.663Z,49.87
2023-05-06T07:35:32.752Z,50.12
2023-05-06T07:37:59.733Z,49.66
2023-05-06T07:40:28.086Z,49.26
2023-05-06T07:42:55.595Z,49.11
2023-05-06T07:45:24.252Z,49.24
2023-05-06T07:47:51.524Z,49.60
2023-05-06T07:50:18.554Z,49.55
2023-05-06T07:52:45.750Z,49.35
2023-05-06T07:55:12.968Z,49.38
2023-05-06T07:57:41.404Z,49.46
2023-05-06T08:00:09.985Z,49.10
2023-05-06T08:02:38.630Z,49.12
2023-05-06T08:05:08.843Z,49.34
2023-05-06T08:07:35.948Z,48.85
2023-05-06T08:10:03.038Z,49.25
2023-05-06T08:12:30.534Z,49.09
2023-05-06T08:14:58.787Z,49.12
2023-05-06T08:17:25.733Z,48.99
2023-05-06T08:19:52.754Z,48.74
2023-05-06T08:22:19.753Z,48.85
2023-05-06T08:24:46.637Z,48.53
2023-05-06T08:29:40.428Z,48.61
2023-05-06T08:32:08.742Z,47.70
2023-05-06T08:34:35.645Z,47.83
2023-05-06T08:37:02.545Z,47.65
2023-05-06T08:39:30.690Z,48.36
2023-05-06T08:42:00.654Z,48.05
2023-05-06T08:44:28.227Z,48.21
2023-05-06T08:46:55.565Z,47.66
2023-05-06T08:49:23.774Z,48.01
2023-05-06T08:51:55.175Z,47.78
2023-05-06T08:54:24.896Z,47.84
2023-05-06T08:56:56.685Z,48.26
2023-05-06T08:59:25.532Z,47.92
2023-05-06T09:01:53.113Z,48.25
2023-05-06T09:04:20.330Z,47.59
2023-05-06T09:06:48.595Z,47.54
2023-05-06T09:09:15.516Z,47.46
2023-05-06T09:11:42.567Z,46.90
2023-05-06T09:14:12.842Z,46.57
2023-05-06T09:16:42.573Z,45.54
2023-05-06T09:19:09.782Z,43.89
2023-05-06T09:21:39.048Z,42.55
2023-05-06T09:24:09.939Z,41.80
2023-05-06T09:26:39.323Z,40.30
2023-05-06T09:29:06.830Z,40.11
2023-05-06T09:31:41.195Z,40.79
2023-05-06T09:34:08.208Z,41.06
2023-05-06T09:36:35.214Z,40.54
2023-05-06T09:39:02.161Z,40.96
2023-05-06T09:41:31.064Z,40.62
2023-05-06T09:43:59.117Z,40.56
2023-05-06T09:46:27.982Z,38.72
2023-05-06T09:48:58.158Z,36.79
2023-05-06T09:51:28.359Z,34.81
2023-05-06T09:53:56.976Z,32.95
2023-05-06T09:56:24.896Z,31.76
2023-05-06T09:58:54.580Z,29.98
2023-05-06T10:01:32.647Z,29.83
2023-05-06T10:04:08.122Z,30.62
2023-05-06T10:06:36.866Z,30.30
2023-05-06T10:09:06.646Z,30.18
2023-05-06T10:11:34.091Z,29.89
2023-05-06T10:14:04.223Z,29.27
2023-05-06T10:16:35.712Z,28.96
2023-05-06T10:19:06.324Z,28.43
2023-05-06T10:21:38.171Z,29.61
2023-05-06T10:24:08.971Z,30.20
2023-05-06T10:26:38.318Z,29.74
2023-05-06T10:29:10.684Z,30.80
2023-05-06T10:31:46.197Z,30.81
2023-05-06T10:34:13.594Z,29.83
2023-05-06T10:36:44.797Z,29.91
2023-05-06T10:39:14.223Z,28.68
2023-05-06T10:41:41.539Z,28.68
2023-05-06T10:44:10.044Z,29.38
2023-05-06T10:46:59.566Z,30.22
2023-05-06T10:49:27.210Z,31.08
2023-05-06T10:52:14.385Z,31.04
2023-05-06T10:54:50.489Z,31.04
2023-05-06T10:57:17.861Z,30.68
2023-05-06T10:59:47.628Z,30.33
2023-05-06T11:02:19.909Z,30.80
2023-05-06T11:04:51.824Z,31.03
2023-05-06T11:07:23.585Z,30.14
2023-05-06T11:09:58.850Z,29.97
2023-05-06T11:12:45.373Z,30.01
2023-05-06T11:15:25.018Z,29.66
2023-05-06T11:17:54.421Z,30.69
2023-05-06T11:20:23.938Z,30.85
2023-05-06T11:22:51.502Z,31.04
2023-05-06T11:25:41.119Z,31.92
2023-05-06T11:28:10.070Z,32.43
2023-05-06T11:30:42.236Z,33.09
2023-05-06T11:33:19.497Z,33.55
2023-05-06T11:35:46.561Z,33.92
2023-05-06T11:38:13.490Z,33.91
2023-05-06T11:40:41.613Z,33.06
2023-05-06T11:43:13.302Z,33.65
2023-05-06T11:45:43.760Z,34.15
2023-05-06T11:48:14.114Z,34.08
2023-05-06T11:50:45.627Z,33.51
2023-05-06T11:53:12.941Z,33.36
2023-05-06T11:55:40.374Z,33.09
2023-05-06T11:58:12.872Z,33.01
2023-05-06T12:00:51.326Z,33.35
2023-05-06T12:03:19.147Z,33.57
2023-05-06T12:05:47.937Z,34.19
2023-05-06T12:08:26.711Z,33.95
2023-05-06T12:10:59.009Z,34.23
2023-05-06T12:13:27.511Z,34.19
2023-05-06T12:15:58.227Z,34.26
2023-05-06T12:18:26.205Z,33.48
2023-05-06T12:20:54.600Z,32.57
2023-05-06T12:23:21.990Z,32.08
2023-05-06T12:26:02.429Z,31.72
2023-05-06T12:28:31.281Z,31.37
2023-05-06T12:30:59.635Z,30.43
2023-05-06T12:33:26.536Z,29.43
2023-05-06T12:35:56.880Z,28.94
2023-05-06T12:38:23.780Z,28.83
2023-05-06T12:40:54.751Z,28.69
2023-05-06T12:43:30.617Z,28.80
2023-05-06T12:46:07.053Z,30.06
2023-05-06T12:48:34.326Z,30.58
2023-05-06T12:51:17.062Z,30.34
2023-05-06T12:53:43.978Z,29.68
2023-05-06T12:56:10.847Z,29.84
2023-05-06T12:58:39.423Z,30.42
2023-05-06T13:01:07.992Z,30.34
2023-05-06T13:03:38.208Z,30.51
2023-05-06T13:06:06.111Z,31.45
2023-05-06T13:08:33.803Z,32.01
2023-05-06T13:11:02.324Z,32.33
2023-05-06T13:13:29.204Z,32.03
2023-05-06T13:15:56.997Z,31.97
2023-05-06T13:18:26.166Z,31.98
2023-05-06T13:20:53.042Z,31.69
2023-05-06T13:23:19.936Z,30.61
2023-05-06T13:26:02.881Z,29.65
2023-05-06T13:28:32.933Z,27.63
2023-05-06T13:30:59.824Z,26.52
2023-05-06T13:33:28.072Z,26.55
2023-05-06T13:35:54.999Z,26.37
2023-05-06T13:38:22.214Z,26.28
2023-05-06T13:40:51.915Z,26.79
2023-05-06T13:43:19.018Z,27.64
2023-05-06T13:45:46.125Z,27.87
2023-05-06T13:48:13.925Z,28.51
2023-05-06T13:50:43.424Z,29.72
2023-05-06T13:53:11.286Z,29.83
2023-05-06T13:55:38.432Z,30.30
2023-05-06T13:58:06.821Z,30.49
2023-05-06T14:00:35.873Z,30.80
2023-05-06T14:03:03.712Z,30.68
2023-05-06T14:05:30.692Z,30.46
2023-05-06T14:07:58.872Z,31.19
2023-05-06T14:10:25.857Z,32.07
2023-05-06T14:12:52.774Z,32.68
2023-05-06T14:15:20.093Z,33.21
2023-05-06T14:17:47.029Z,33.80
2023-05-06T14:20:13.942Z,34.12
2023-05-06T14:22:41.720Z,34.25
2023-05-06T14:25:10.988Z,34.30
2023-05-06T14:27:38.102Z,34.46
2023-05-06T14:30:09.541Z,34.60
2023-05-06T14:32:37.265Z,34.70
2023-05-06T14:35:05.561Z,35.30
2023-05-06T14:37:32.510Z,35.20
2023-05-06T14:39:59.379Z,35.49
2023-05-06T14:42:27.588Z,36.12
2023-05-06T14:44:54.888Z,36.08
2023-05-06T14:47:22.314Z,35.21
2023-05-06T14:49:49.335Z,35.50
2023-05-06T14:52:16.201Z,34.72
2023-05-06T14:54:43.158Z,34.41
2023-05-06T14:57:10.773Z,34.08
2023-05-06T14:59:39.121Z,33.36
2023-05-06T15:02:09.714Z,33.56
2023-05-06T15:04:37.047Z,33.42
2023-05-06T15:07:04.372Z,33.33
2023-05-06T15:09:31.442Z,32.79
2023-05-06T15:11:58.487Z,32.98
2023-05-06T15:14:26.078Z,32.83
2023-05-06T15:16:57.330Z,33.39
2023-05-06T15:19:24.704Z,33.83
2023-05-06T15:21:51.629Z,34.01
2023-05-06T15:24:18.607Z,34.00
2023-05-06T15:26:45.843Z,34.06
2023-05-06T15:29:13.045Z,33.97
2023-05-06T15:31:40.837Z,33.85
2023-05-06T15:34:11.304Z,34.07
2023-05-06T15:36:38.810Z,34.69
2023-05-06T15:39:05.803Z,34.54
2023-05-06T15:41:35.271Z,35.67
2023-05-06T15:46:33.013Z,36.01
2023-05-06T15:51:31.943Z,37.18
2023-05-06T15:53:58.837Z,36.87
2023-05-06T15:56:27.095Z,37.48
2023-05-06T15:58:55.512Z,37.20
2023-05-06T16:01:40.254Z,37.39
2023-05-06T16:04:09.665Z,37.94
2023-05-06T16:06:38.037Z,38.31
2023-05-06T16:09:04.946Z,38.74
2023-05-06T16:11:31.843Z,39.09
2023-05-06T16:13:58.746Z,39.15
2023-05-06T16:16:25.768Z,38.99
2023-05-06T16:18:52.803Z,39.15
2023-05-06T16:21:19.721Z,38.98
2023-05-06T16:23:48.418Z,39.75
2023-05-06T16:26:16.538Z,39.40
2023-05-06T16:28:43.415Z,39.64
2023-05-06T16:31:10.514Z,39.88
2023-05-06T16:33:37.569Z,40.50
2023-05-06T16:36:05.700Z,40.74
2023-05-06T16:38:32.602Z,41.14
2023-05-06T16:41:00.807Z,41.31
2023-05-06T16:43:28.245Z,41.83
2023-05-06T16:45:55.466Z,41.88
2023-05-06T16:48:22.546Z,41.99
2023-05-06T16:50:49.525Z,42.17
2023-05-06T16:53:17.323Z,42.46
2023-05-06T16:55:47.584Z,42.77
2023-05-06T16:58:15.982Z,42.93
2023-05-06T17:00:43.029Z,43.08
2023-05-06T17:03:10.417Z,43.25
2023-05-06T17:05:37.542Z,43.60
2023-05-06T17:08:05.411Z,43.76
2023-05-06T17:10:32.308Z,43.59
2023-05-06T17:12:59.396Z,43.61
2023-05-06T17:15:27.838Z,43.70
2023-05-06T17:17:54.840Z,43.80
2023-05-06T17:20:22.711Z,43.83
2023-05-06T17:22:49.620Z,43.93
2023-05-06T17:25:16.904Z,44.09
2023-05-06T17:27:45.078Z,44.00
2023-05-06T17:30:13.126Z,44.14
2023-05-06T17:32:42.295Z,44.04
2023-05-06T17:35:10.207Z,44.23
2023-05-06T17:37:37.349Z,44.62
2023-05-06T17:40:07.622Z,44.76
2023-05-06T17:42:34.778Z,45.34
2023-05-06T17:45:01.826Z,44.91
2023-05-06T17:47:30.244Z,45.22
2023-05-06T17:49:58.809Z,46.08
2023-05-06T17:52:26.514Z,46.01
2023-05-06T17:55:10.603Z,46.44
2023-05-06T17:57:40.781Z,46.58
2023-05-06T18:00:09.553Z,46.31
2023-05-06T18:02:36.591Z,46.75
2023-05-06T18:05:06.352Z,46.64
2023-05-06T18:07:34.400Z,46.94
2023-05-06T18:10:01.378Z,46.51
2023-05-06T18:12:28.575Z,46.94
2023-05-06T18:14:56.678Z,47.41
2023-05-06T18:17:23.774Z,47.47
2023-05-06T18:19:50.898Z,47.84
2023-05-06T18:22:19.104Z,47.55
2023-05-06T18:24:45.988Z,48.00
2023-05-06T18:27:12.916Z,47.70
2023-05-06T18:29:41.193Z,47.76
2023-05-06T18:32:08.400Z,48.26
2023-05-06T18:34:35.562Z,48.07
2023-05-06T18:37:02.604Z,48.31
2023-05-06T18:39:30.940Z,48.21
2023-05-06T18:41:57.811Z,48.92
2023-05-06T18:44:24.819Z,48.67
2023-05-06T18:46:51.690Z,48.94
2023-05-06T18:49:18.600Z,48.75
2023-05-06T18:51:45.504Z,49.29
2023-05-06T18:54:14.095Z,48.92
2023-05-06T18:56:43.932Z,49.19
2023-05-06T18:59:11.561Z,49.30
2023-05-06T19:01:38.554Z,49.53
2023-05-06T19:04:06.342Z,49.65
2023-05-06T19:06:33.514Z,49.51
2023-05-06T19:09:01.073Z,49.67
2023-05-06T19:11:27.950Z,49.91
2023-05-06T19:13:56.152Z,50.06
2023-05-06T19:16:23.082Z,50.27
2023-05-06T19:18:50.123Z,50.42
2023-05-06T19:21:18.478Z,50.78
2023-05-06T19:23:45.540Z,50.65
2023-05-06T19:26:13.737Z,50.76
2023-05-06T19:28:40.965Z,51.05
2023-05-06T19:31:10.673Z,51.07
2023-05-06T19:33:38.280Z,50.85
2023-05-06T19:36:06.545Z,50.91
2023-05-06T19:38:34.170Z,51.07
2023-05-06T19:41:01.216Z,50.93
2023-05-06T19:43:28.250Z,50.85
2023-05-06T19:45:55.730Z,51.04
2023-05-06T19:48:24.252Z,51.07
2023-05-06T19:50:53.719Z,51.08
2023-05-06T19:53:22.512Z,51.05
2023-05-06T19:55:49.446Z,51.22
2023-05-06T19:58:17.110Z,51.24
2023-05-06T20:00:44.940Z,51.20
2023-05-06T20:03:12.027Z,51.18
2023-05-06T20:05:41.447Z,50.91
2023-05-06T20:08:11.479Z,50.98
2023-05-06T20:10:38.393Z,50.95
2023-05-06T20:13:06.317Z,51.12
2023-05-06T20:15:33.451Z,51.24
2023-05-06T20:18:00.308Z,51.13
2023-05-06T20:20:34.211Z,50.92
2023-05-06T20:23:02.936Z,51.21
2023-05-06T20:25:30.266Z,51.15
2023-05-06T20:27:59.119Z,51.25
2023-05-06T20:30:26.375Z,51.17
2023-05-06T20:32:53.343Z,51.16
2023-05-06T20:35:20.343Z,51.14
2023-05-06T20:37:47.217Z,51.08
2023-05-06T20:40:15.713Z,51.09
2023-05-06T20:42:42.581Z,51.02
2023-05-06T20:45:10.493Z,51.16
2023-05-06T20:47:37.808Z,51.08
2023-05-06T20:50:05.821Z,50.92
2023-05-06T20:52:33.781Z,51.03
2023-05-06T20:55:00.922Z,51.20
2023-05-06T20:57:29.350Z,51.09
2023-05-06T20:59:56.322Z,51.62
2023-05-06T21:02:23.320Z,51.38
2023-05-06T21:04:50.803Z,51.28
2023-05-06T21:07:17.829Z,51.39
2023-05-06T21:09:44.833Z,51.24
2023-05-06T21:12:12.218Z,51.14
2023-05-06T21:14:40.444Z,51.13
2023-05-06T21:17:08.311Z,51.18
2023-05-06T21:19:35.522Z,51.15
2023-05-06T21:22:02.818Z,51.20
2023-05-06T21:24:30.670Z,51.07
2023-05-06T21:26:57.611Z,51.17
2023-05-06T21:29:24.479Z,51.12
2023-05-06T21:31:52.681Z,51.04
2023-05-06T21:34:19.887Z,51.30
2023-05-06T21:36:46.747Z,51.20
2023-05-06T21:39:14.351Z,51.24
2023-05-06T21:41:41.248Z,51.11
2023-05-06T21:44:10.137Z,51.02
2023-05-06T21:46:37.839Z,51.13
2023-05-06T21:49:06.283Z,50.94
2023-05-06T21:51:36.493Z,51.37
2023-05-06T21:54:03.558Z,51.43
2023-05-06T21:56:30.452Z,51.42
2023-05-06T21:58:57.328Z,51.50
2023-05-06T22:01:29.031Z,51.45
2023-05-06T22:03:56.388Z,51.32
2023-05-06T22:06:24.844Z,51.38
2023-05-06T22:08:51.941Z,51.33
2023-05-06T22:11:18.898Z,51.31
2023-05-06T22:13:45.918Z,51.41
2023-05-06T22:16:13.031Z,51.25
2023-05-06T22:18:42.538Z,51.07
2023-05-06T22:21:09.818Z,51.30
2023-05-06T22:23:40.381Z,51.36
2023-05-06T22:26:07.312Z,51.43
2023-05-06T22:28:34.475Z,51.51
2023-05-06T22:31:01.325Z,51.39
2023-05-06T22:33:28.320Z,51.50
2023-05-06T22:35:55.594Z,51.69
2023-05-06T22:38:22.686Z,51.65
2023-05-06T22:40:51.170Z,51.66
2023-05-06T22:43:18.004Z,51.38
2023-05-06T22:45:45.004Z,51.76
2023-05-06T22:48:12.216Z,51.66
2023-05-06T22:50:39.299Z,51.59
2023-05-06T22:53:15.186Z,51.65
2023-05-06T22:55:42.793Z,51.74
2023-05-06T22:58:11.141Z,52.00
2023-05-06T23:00:38.249Z,51.85
2023-05-06T23:03:05.893Z,51.60
2023-05-06T23:05:32.850Z,51.77
2023-05-06T23:07:59.707Z,51.72
2023-05-06T23:10:26.773Z,51.60
2023-05-06T23:12:53.708Z,51.64
2023-05-06T23:15:22.872Z,51.87
2023-05-06T23:17:49.794Z,51.73
2023-05-06T23:20:17.214Z,51.72
2023-05-06T23:22:44.235Z,52.03
2023-05-06T23:25:12.098Z,52.21
2023-05-06T23:27:40.112Z,52.27
2023-05-06T23:30:08.786Z,52.06
2023-05-06T23:32:37.502Z,52.20
2023-05-06T23:35:07.135Z,52.02
2023-05-06T23:37:34.250Z,52.07
2023-05-06T23:40:01.276Z,52.39
2023-05-06T23:42:28.224Z,52.44
2023-05-06T23:44:55.102Z,52.74
2023-05-06T23:47:22.057Z,53.16
2023-05-06T23:49:50.527Z,52.95
2023-05-06T23:52:17.389Z,53.11
2023-05-06T23:54:44.263Z,53.35
2023-05-06T23:57:11.185Z,53.27
2023-05-06T23:59:38.106Z,53.16
